sensor_id;sensor_type;location;lat;lon;timestamp;P1;durP1;ratioP1;P2;durP2;ratioP2
39994;SDS011;25686;51.908;10.418;2024-02-21T00:00:05;15.82;;;6.00;;
39994;SDS011;25686;51.908;10.418;2024-02-21T00:02:06;22.30;;;6.90;;
39994;SDS011;25686;51.908;10.418;2024-02-21T00:04:07;22.27;;;7.82;;
39994;SDS011;25686;51.908;10.418;2024-02-21T00:06:08;21.77;;;7.28;;
39994;SDS011;25686;51.908;10.418;2024-02-21T00:08:09;22.27;;;6.13;;
39994;SDS011;25686;51.908;10.418;2024-02-21T00:10:10;20.55;;;7.10;;
39994;SDS011;25686;51.908;10.418;2024-02-21T00:12:11;21.20;;;7.20;;
39994;SDS011;25686;51.908;10.418;2024-02-21T00:14:13;26.23;;;7.60;;
39994;SDS011;25686;51.908;10.418;2024-02-21T00:16:14;21.05;;;7.18;;
39994;SDS011;25686;51.908;10.418;2024-02-21T00:18:16;19.23;;;6.80;;
39994;SDS011;25686;51.908;10.418;2024-02-21T00:20:16;22.35;;;7.13;;
39994;SDS011;25686;51.908;10.418;2024-02-21T00:22:17;22.98;;;6.75;;
39994;SDS011;25686;51.908;10.418;2024-02-21T00:24:18;20.08;;;7.40;;
39994;SDS011;25686;51.908;10.418;2024-02-21T00:26:19;24.60;;;7.00;;
39994;SDS011;25686;51.908;10.418;2024-02-21T00:28:20;20.60;;;6.85;;
39994;SDS011;25686;51.908;10.418;2024-02-21T00:30:21;17.80;;;6.82;;
39994;SDS011;25686;51.908;10.418;2024-02-21T00:32:22;24.00;;;6.72;;
39994;SDS011;25686;51.908;10.418;2024-02-21T00:34:23;20.65;;;6.32;;
39994;SDS011;25686;51.908;10.418;2024-02-21T00:36:24;20.92;;;6.53;;
39994;SDS011;25686;51.908;10.418;2024-02-21T00:38:25;14.93;;;6.32;;
39994;SDS011;25686;51.908;10.418;2024-02-21T00:40:26;17.77;;;6.30;;
39994;SDS011;25686;51.908;10.418;2024-02-21T00:42:27;17.85;;;6.93;;
39994;SDS011;25686;51.908;10.418;2024-02-21T00:44:28;20.73;;;6.85;;
39994;SDS011;25686;51.908;10.418;2024-02-21T00:46:29;16.20;;;6.25;;
39994;SDS011;25686;51.908;10.418;2024-02-21T00:48:30;23.38;;;7.15;;
39994;SDS011;25686;51.908;10.418;2024-02-21T00:50:31;22.20;;;7.97;;
39994;SDS011;25686;51.908;10.418;2024-02-21T00:52:32;28.20;;;7.68;;
39994;SDS011;25686;51.908;10.418;2024-02-21T00:54:32;21.63;;;8.32;;
39994;SDS011;25686;51.908;10.418;2024-02-21T00:56:33;20.85;;;7.00;;
39994;SDS011;25686;51.908;10.418;2024-02-21T00:58:34;21.88;;;8.10;;
39994;SDS011;25686;51.908;10.418;2024-02-21T01:00:35;24.42;;;7.38;;
39994;SDS011;25686;51.908;10.418;2024-02-21T01:02:36;26.75;;;8.35;;
39994;SDS011;25686;51.908;10.418;2024-02-21T01:04:37;23.08;;;7.95;;
39994;SDS011;25686;51.908;10.418;2024-02-21T01:06:38;23.13;;;8.38;;
39994;SDS011;25686;51.908;10.418;2024-02-21T01:08:42;18.38;;;7.70;;
39994;SDS011;25686;51.908;10.418;2024-02-21T01:10:43;21.70;;;7.82;;
39994;SDS011;25686;51.908;10.418;2024-02-21T01:12:44;20.55;;;8.32;;
39994;SDS011;25686;51.908;10.418;2024-02-21T01:14:45;23.00;;;8.35;;
39994;SDS011;25686;51.908;10.418;2024-02-21T01:16:46;21.63;;;8.05;;
39994;SDS011;25686;51.908;10.418;2024-02-21T01:18:47;24.67;;;8.43;;
39994;SDS011;25686;51.908;10.418;2024-02-21T01:20:48;27.08;;;8.70;;
39994;SDS011;25686;51.908;10.418;2024-02-21T01:22:49;28.27;;;8.55;;
39994;SDS011;25686;51.908;10.418;2024-02-21T01:24:50;27.38;;;8.85;;
39994;SDS011;25686;51.908;10.418;2024-02-21T01:26:51;29.30;;;8.63;;
39994;SDS011;25686;51.908;10.418;2024-02-21T01:28:51;23.10;;;8.55;;
39994;SDS011;25686;51.908;10.418;2024-02-21T01:30:52;24.15;;;8.95;;
39994;SDS011;25686;51.908;10.418;2024-02-21T01:32:53;22.63;;;9.07;;
39994;SDS011;25686;51.908;10.418;2024-02-21T01:34:54;23.02;;;9.27;;
39994;SDS011;25686;51.908;10.418;2024-02-21T01:36:55;27.63;;;8.40;;
39994;SDS011;25686;51.908;10.418;2024-02-21T01:38:56;24.98;;;9.13;;
39994;SDS011;25686;51.908;10.418;2024-02-21T01:40:57;22.15;;;8.90;;
39994;SDS011;25686;51.908;10.418;2024-02-21T01:42:58;27.98;;;10.02;;
39994;SDS011;25686;51.908;10.418;2024-02-21T01:44:59;25.45;;;9.52;;
39994;SDS011;25686;51.908;10.418;2024-02-21T01:47:00;26.58;;;9.20;;
39994;SDS011;25686;51.908;10.418;2024-02-21T01:49:01;27.20;;;9.73;;
39994;SDS011;25686;51.908;10.418;2024-02-21T01:51:02;30.25;;;9.52;;
39994;SDS011;25686;51.908;10.418;2024-02-21T01:53:04;23.95;;;9.43;;
39994;SDS011;25686;51.908;10.418;2024-02-21T01:55:05;24.88;;;9.85;;
39994;SDS011;25686;51.908;10.418;2024-02-21T01:57:06;29.33;;;9.90;;
39994;SDS011;25686;51.908;10.418;2024-02-21T01:59:07;20.88;;;9.95;;
39994;SDS011;25686;51.908;10.418;2024-02-21T02:01:09;25.92;;;9.80;;
39994;SDS011;25686;51.908;10.418;2024-02-21T02:03:10;23.35;;;9.10;;
39994;SDS011;25686;51.908;10.418;2024-02-21T02:05:16;25.83;;;9.65;;
39994;SDS011;25686;51.908;10.418;2024-02-21T02:07:21;23.30;;;8.98;;
39994;SDS011;25686;51.908;10.418;2024-02-21T02:09:21;23.05;;;9.35;;
39994;SDS011;25686;51.908;10.418;2024-02-21T02:11:22;27.52;;;8.98;;
39994;SDS011;25686;51.908;10.418;2024-02-21T02:13:24;22.92;;;9.55;;
39994;SDS011;25686;51.908;10.418;2024-02-21T02:15:25;31.25;;;10.77;;
39994;SDS011;25686;51.908;10.418;2024-02-21T02:17:26;23.35;;;9.63;;
39994;SDS011;25686;51.908;10.418;2024-02-21T02:19:27;22.17;;;9.85;;
39994;SDS011;25686;51.908;10.418;2024-02-21T02:21:32;18.50;;;9.80;;
39994;SDS011;25686;51.908;10.418;2024-02-21T02:23:33;22.63;;;9.75;;
39994;SDS011;25686;51.908;10.418;2024-02-21T02:25:35;26.38;;;10.27;;
39994;SDS011;25686;51.908;10.418;2024-02-21T02:27:42;28.85;;;10.60;;
39994;SDS011;25686;51.908;10.418;2024-02-21T02:29:44;21.08;;;10.32;;
39994;SDS011;25686;51.908;10.418;2024-02-21T02:31:45;25.13;;;11.05;;
39994;SDS011;25686;51.908;10.418;2024-02-21T02:33:46;27.65;;;11.43;;
39994;SDS011;25686;51.908;10.418;2024-02-21T02:35:48;31.35;;;11.27;;
39994;SDS011;25686;51.908;10.418;2024-02-21T02:37:49;28.70;;;11.63;;
39994;SDS011;25686;51.908;10.418;2024-02-21T02:39:50;20.98;;;10.93;;
39994;SDS011;25686;51.908;10.418;2024-02-21T02:41:51;26.30;;;11.63;;
39994;SDS011;25686;51.908;10.418;2024-02-21T02:43:52;24.13;;;10.45;;
39994;SDS011;25686;51.908;10.418;2024-02-21T02:45:53;28.58;;;11.32;;
39994;SDS011;25686;51.908;10.418;2024-02-21T02:47:55;24.92;;;10.10;;
39994;SDS011;25686;51.908;10.418;2024-02-21T02:49:57;22.20;;;10.45;;
39994;SDS011;25686;51.908;10.418;2024-02-21T02:51:57;22.42;;;11.10;;
39994;SDS011;25686;51.908;10.418;2024-02-21T02:53:58;26.60;;;11.55;;
39994;SDS011;25686;51.908;10.418;2024-02-21T02:55:59;28.23;;;11.27;;
39994;SDS011;25686;51.908;10.418;2024-02-21T02:58:00;26.02;;;10.98;;
39994;SDS011;25686;51.908;10.418;2024-02-21T03:00:01;29.70;;;12.20;;
39994;SDS011;25686;51.908;10.418;2024-02-21T03:02:03;26.23;;;12.02;;
39994;SDS011;25686;51.908;10.418;2024-02-21T03:04:04;30.95;;;11.60;;
39994;SDS011;25686;51.908;10.418;2024-02-21T03:06:04;28.77;;;12.10;;
39994;SDS011;25686;51.908;10.418;2024-02-21T03:08:05;28.58;;;14.27;;
39994;SDS011;25686;51.908;10.418;2024-02-21T03:10:07;27.48;;;12.40;;
39994;SDS011;25686;51.908;10.418;2024-02-21T03:12:08;22.70;;;13.18;;
39994;SDS011;25686;51.908;10.418;2024-02-21T03:14:09;26.58;;;13.55;;
39994;SDS011;25686;51.908;10.418;2024-02-21T03:16:10;27.85;;;12.73;;
39994;SDS011;25686;51.908;10.418;2024-02-21T03:18:11;27.40;;;13.02;;
39994;SDS011;25686;51.908;10.418;2024-02-21T03:20:12;26.75;;;12.43;;
39994;SDS011;25686;51.908;10.418;2024-02-21T03:22:13;27.48;;;13.48;;
39994;SDS011;25686;51.908;10.418;2024-02-21T03:24:14;31.33;;;12.68;;
39994;SDS011;25686;51.908;10.418;2024-02-21T03:26:15;34.80;;;14.65;;
39994;SDS011;25686;51.908;10.418;2024-02-21T03:28:17;31.33;;;13.65;;
39994;SDS011;25686;51.908;10.418;2024-02-21T03:30:18;26.38;;;13.13;;
39994;SDS011;25686;51.908;10.418;2024-02-21T03:32:19;31.15;;;13.88;;
39994;SDS011;25686;51.908;10.418;2024-02-21T03:34:20;29.77;;;14.18;;
39994;SDS011;25686;51.908;10.418;2024-02-21T03:36:21;31.83;;;14.68;;
39994;SDS011;25686;51.908;10.418;2024-02-21T03:38:22;26.08;;;13.75;;
39994;SDS011;25686;51.908;10.418;2024-02-21T03:40:22;26.25;;;13.75;;
39994;SDS011;25686;51.908;10.418;2024-02-21T03:42:23;36.97;;;14.30;;
39994;SDS011;25686;51.908;10.418;2024-02-21T03:44:25;31.48;;;14.02;;
39994;SDS011;25686;51.908;10.418;2024-02-21T03:46:26;27.77;;;12.80;;
39994;SDS011;25686;51.908;10.418;2024-02-21T03:48:27;27.42;;;13.10;;
39994;SDS011;25686;51.908;10.418;2024-02-21T03:50:28;34.05;;;14.68;;
39994;SDS011;25686;51.908;10.418;2024-02-21T03:52:29;28.85;;;12.77;;
39994;SDS011;25686;51.908;10.418;2024-02-21T03:54:30;34.20;;;14.30;;
39994;SDS011;25686;51.908;10.418;2024-02-21T03:56:31;29.35;;;14.00;;
39994;SDS011;25686;51.908;10.418;2024-02-21T03:58:32;30.70;;;13.63;;
39994;SDS011;25686;51.908;10.418;2024-02-21T04:00:33;29.17;;;13.18;;
39994;SDS011;25686;51.908;10.418;2024-02-21T04:02:34;28.92;;;13.32;;
39994;SDS011;25686;51.908;10.418;2024-02-21T04:04:35;29.75;;;13.50;;
39994;SDS011;25686;51.908;10.418;2024-02-21T04:06:45;29.30;;;13.55;;
39994;SDS011;25686;51.908;10.418;2024-02-21T04:08:46;31.65;;;14.02;;
39994;SDS011;25686;51.908;10.418;2024-02-21T04:10:47;28.65;;;13.23;;
39994;SDS011;25686;51.908;10.418;2024-02-21T04:12:48;30.45;;;13.15;;
39994;SDS011;25686;51.908;10.418;2024-02-21T04:14:50;27.25;;;13.48;;
39994;SDS011;25686;51.908;10.418;2024-02-21T04:16:51;32.25;;;13.25;;
39994;SDS011;25686;51.908;10.418;2024-02-21T04:18:52;32.70;;;13.52;;
39994;SDS011;25686;51.908;10.418;2024-02-21T04:20:53;32.53;;;14.70;;
39994;SDS011;25686;51.908;10.418;2024-02-21T04:22:53;29.35;;;14.20;;
39994;SDS011;25686;51.908;10.418;2024-02-21T04:24:54;36.88;;;13.88;;
39994;SDS011;25686;51.908;10.418;2024-02-21T04:26:55;26.67;;;11.48;;
39994;SDS011;25686;51.908;10.418;2024-02-21T04:28:56;28.23;;;13.45;;
39994;SDS011;25686;51.908;10.418;2024-02-21T04:30:57;29.00;;;13.70;;
39994;SDS011;25686;51.908;10.418;2024-02-21T04:32:58;26.10;;;11.98;;
39994;SDS011;25686;51.908;10.418;2024-02-21T04:34:59;29.65;;;12.88;;
39994;SDS011;25686;51.908;10.418;2024-02-21T04:37:00;30.75;;;13.68;;
39994;SDS011;25686;51.908;10.418;2024-02-21T04:39:01;31.23;;;13.68;;
39994;SDS011;25686;51.908;10.418;2024-02-21T04:41:02;29.48;;;12.82;;
39994;SDS011;25686;51.908;10.418;2024-02-21T04:43:03;37.58;;;13.05;;
39994;SDS011;25686;51.908;10.418;2024-02-21T04:45:04;36.63;;;14.25;;
39994;SDS011;25686;51.908;10.418;2024-02-21T04:47:05;32.28;;;13.57;;
39994;SDS011;25686;51.908;10.418;2024-02-21T04:49:06;33.88;;;13.40;;
39994;SDS011;25686;51.908;10.418;2024-02-21T04:51:06;31.10;;;12.88;;
39994;SDS011;25686;51.908;10.418;2024-02-21T04:53:07;28.67;;;13.82;;
39994;SDS011;25686;51.908;10.418;2024-02-21T04:55:08;30.70;;;12.93;;
39994;SDS011;25686;51.908;10.418;2024-02-21T04:57:09;21.50;;;9.32;;
39994;SDS011;25686;51.908;10.418;2024-02-21T04:59:10;26.02;;;12.18;;
39994;SDS011;25686;51.908;10.418;2024-02-21T05:01:11;25.17;;;11.65;;
39994;SDS011;25686;51.908;10.418;2024-02-21T05:03:12;27.48;;;12.75;;
39994;SDS011;25686;51.908;10.418;2024-02-21T05:05:13;32.40;;;13.95;;
39994;SDS011;25686;51.908;10.418;2024-02-21T05:07:16;29.75;;;12.50;;
39994;SDS011;25686;51.908;10.418;2024-02-21T05:09:19;24.25;;;11.45;;
39994;SDS011;25686;51.908;10.418;2024-02-21T05:11:20;29.48;;;11.00;;
39994;SDS011;25686;51.908;10.418;2024-02-21T05:13:21;24.88;;;12.20;;
39994;SDS011;25686;51.908;10.418;2024-02-21T05:15:22;29.77;;;12.43;;
39994;SDS011;25686;51.908;10.418;2024-02-21T05:17:23;26.88;;;10.88;;
39994;SDS011;25686;51.908;10.418;2024-02-21T05:19:24;30.80;;;11.85;;
39994;SDS011;25686;51.908;10.418;2024-02-21T05:21:24;25.77;;;12.07;;
39994;SDS011;25686;51.908;10.418;2024-02-21T05:23:25;23.05;;;10.73;;
39994;SDS011;25686;51.908;10.418;2024-02-21T05:25:26;28.10;;;12.15;;
39994;SDS011;25686;51.908;10.418;2024-02-21T05:27:27;22.00;;;11.63;;
39994;SDS011;25686;51.908;10.418;2024-02-21T05:29:28;21.50;;;11.95;;
39994;SDS011;25686;51.908;10.418;2024-02-21T05:33:49;22.25;;;11.73;;
39994;SDS011;25686;51.908;10.418;2024-02-21T05:35:50;30.05;;;11.30;;
39994;SDS011;25686;51.908;10.418;2024-02-21T05:37:51;29.45;;;10.95;;
39994;SDS011;25686;51.908;10.418;2024-02-21T05:39:52;23.52;;;10.65;;
39994;SDS011;25686;51.908;10.418;2024-02-21T05:41:53;25.23;;;11.38;;
39994;SDS011;25686;51.908;10.418;2024-02-21T05:43:54;29.08;;;11.38;;
39994;SDS011;25686;51.908;10.418;2024-02-21T05:45:55;24.58;;;10.60;;
39994;SDS011;25686;51.908;10.418;2024-02-21T05:47:56;27.60;;;10.65;;
39994;SDS011;25686;51.908;10.418;2024-02-21T05:49:57;21.70;;;10.55;;
39994;SDS011;25686;51.908;10.418;2024-02-21T05:51:58;27.05;;;10.40;;
39994;SDS011;25686;51.908;10.418;2024-02-21T05:53:59;21.92;;;10.88;;
39994;SDS011;25686;51.908;10.418;2024-02-21T05:56:00;20.60;;;10.60;;
39994;SDS011;25686;51.908;10.418;2024-02-21T05:58:01;26.67;;;11.90;;
39994;SDS011;25686;51.908;10.418;2024-02-21T06:00:03;22.15;;;10.90;;
39994;SDS011;25686;51.908;10.418;2024-02-21T06:02:05;20.77;;;10.02;;
39994;SDS011;25686;51.908;10.418;2024-02-21T06:04:06;20.77;;;10.38;;
39994;SDS011;25686;51.908;10.418;2024-02-21T06:06:07;26.13;;;10.38;;
39994;SDS011;25686;51.908;10.418;2024-02-21T06:08:08;28.55;;;11.20;;
39994;SDS011;25686;51.908;10.418;2024-02-21T06:10:09;26.13;;;11.65;;
39994;SDS011;25686;51.908;10.418;2024-02-21T06:12:10;21.13;;;10.63;;
39994;SDS011;25686;51.908;10.418;2024-02-21T06:14:11;27.95;;;11.05;;
39994;SDS011;25686;51.908;10.418;2024-02-21T06:16:12;26.98;;;11.10;;
39994;SDS011;25686;51.908;10.418;2024-02-21T06:18:12;27.40;;;12.38;;
39994;SDS011;25686;51.908;10.418;2024-02-21T06:20:15;25.75;;;10.45;;
39994;SDS011;25686;51.908;10.418;2024-02-21T06:22:16;25.35;;;11.35;;
39994;SDS011;25686;51.908;10.418;2024-02-21T06:24:17;25.38;;;11.43;;
39994;SDS011;25686;51.908;10.418;2024-02-21T06:26:18;22.55;;;11.90;;
39994;SDS011;25686;51.908;10.418;2024-02-21T06:28:19;25.45;;;10.80;;
39994;SDS011;25686;51.908;10.418;2024-02-21T06:30:20;24.70;;;10.80;;
39994;SDS011;25686;51.908;10.418;2024-02-21T06:32:21;25.27;;;10.73;;
39994;SDS011;25686;51.908;10.418;2024-02-21T06:34:22;23.42;;;10.27;;
39994;SDS011;25686;51.908;10.418;2024-02-21T06:36:24;19.63;;;10.20;;
39994;SDS011;25686;51.908;10.418;2024-02-21T06:38:25;28.48;;;11.20;;
39994;SDS011;25686;51.908;10.418;2024-02-21T06:40:25;25.42;;;10.93;;
39994;SDS011;25686;51.908;10.418;2024-02-21T06:42:26;27.00;;;10.93;;
39994;SDS011;25686;51.908;10.418;2024-02-21T06:44:27;22.20;;;10.68;;
39994;SDS011;25686;51.908;10.418;2024-02-21T06:46:29;31.40;;;10.80;;
39994;SDS011;25686;51.908;10.418;2024-02-21T06:48:30;22.55;;;10.80;;
39994;SDS011;25686;51.908;10.418;2024-02-21T06:50:31;22.83;;;9.85;;
39994;SDS011;25686;51.908;10.418;2024-02-21T06:52:32;22.70;;;10.00;;
39994;SDS011;25686;51.908;10.418;2024-02-21T06:54:32;26.02;;;11.00;;
39994;SDS011;25686;51.908;10.418;2024-02-21T06:56:33;24.10;;;10.75;;
39994;SDS011;25686;51.908;10.418;2024-02-21T06:58:34;25.95;;;11.10;;
39994;SDS011;25686;51.908;10.418;2024-02-21T07:00:35;23.65;;;10.38;;
39994;SDS011;25686;51.908;10.418;2024-02-21T07:02:36;23.48;;;10.43;;
39994;SDS011;25686;51.908;10.418;2024-02-21T07:04:37;24.38;;;10.68;;
39994;SDS011;25686;51.908;10.418;2024-02-21T07:06:38;25.65;;;11.70;;
39994;SDS011;25686;51.908;10.418;2024-02-21T07:08:39;22.23;;;9.95;;
39994;SDS011;25686;51.908;10.418;2024-02-21T07:10:40;24.30;;;10.00;;
39994;SDS011;25686;51.908;10.418;2024-02-21T07:12:41;25.15;;;10.55;;
39994;SDS011;25686;51.908;10.418;2024-02-21T07:14:44;26.95;;;11.07;;
39994;SDS011;25686;51.908;10.418;2024-02-21T07:16:45;30.80;;;11.25;;
39994;SDS011;25686;51.908;10.418;2024-02-21T07:18:46;26.77;;;10.50;;
39994;SDS011;25686;51.908;10.418;2024-02-21T07:20:46;28.92;;;11.23;;
39994;SDS011;25686;51.908;10.418;2024-02-21T07:22:47;23.90;;;10.93;;
39994;SDS011;25686;51.908;10.418;2024-02-21T07:24:48;23.60;;;10.35;;
39994;SDS011;25686;51.908;10.418;2024-02-21T07:26:49;27.63;;;10.52;;
39994;SDS011;25686;51.908;10.418;2024-02-21T07:28:50;22.45;;;9.88;;
39994;SDS011;25686;51.908;10.418;2024-02-21T07:30:51;23.63;;;9.85;;
39994;SDS011;25686;51.908;10.418;2024-02-21T07:32:52;24.08;;;10.90;;
39994;SDS011;25686;51.908;10.418;2024-02-21T07:34:53;19.80;;;9.98;;
39994;SDS011;25686;51.908;10.418;2024-02-21T07:36:55;23.50;;;10.00;;
39994;SDS011;25686;51.908;10.418;2024-02-21T07:38:56;23.88;;;9.88;;
39994;SDS011;25686;51.908;10.418;2024-02-21T07:40:57;27.38;;;10.82;;
39994;SDS011;25686;51.908;10.418;2024-02-21T07:42:58;21.23;;;10.90;;
39994;SDS011;25686;51.908;10.418;2024-02-21T07:44:59;25.25;;;11.20;;
39994;SDS011;25686;51.908;10.418;2024-02-21T07:47:00;21.13;;;10.38;;
39994;SDS011;25686;51.908;10.418;2024-02-21T07:49:01;26.05;;;10.20;;
39994;SDS011;25686;51.908;10.418;2024-02-21T07:51:02;26.45;;;10.10;;
39994;SDS011;25686;51.908;10.418;2024-02-21T07:53:03;23.58;;;9.75;;
39994;SDS011;25686;51.908;10.418;2024-02-21T07:55:04;21.25;;;9.82;;
39994;SDS011;25686;51.908;10.418;2024-02-21T07:57:05;22.58;;;10.25;;
39994;SDS011;25686;51.908;10.418;2024-02-21T07:59:06;21.30;;;10.07;;
39994;SDS011;25686;51.908;10.418;2024-02-21T08:01:08;19.02;;;9.45;;
39994;SDS011;25686;51.908;10.418;2024-02-21T08:03:09;28.10;;;11.32;;
39994;SDS011;25686;51.908;10.418;2024-02-21T08:05:10;21.35;;;9.25;;
39994;SDS011;25686;51.908;10.418;2024-02-21T08:07:12;19.23;;;9.48;;
39994;SDS011;25686;51.908;10.418;2024-02-21T08:09:13;20.40;;;9.55;;
39994;SDS011;25686;51.908;10.418;2024-02-21T08:11:14;22.88;;;9.98;;
39994;SDS011;25686;51.908;10.418;2024-02-21T08:13:15;20.23;;;8.98;;
39994;SDS011;25686;51.908;10.418;2024-02-21T08:15:16;23.63;;;9.18;;
39994;SDS011;25686;51.908;10.418;2024-02-21T08:17:17;20.70;;;9.70;;
39994;SDS011;25686;51.908;10.418;2024-02-21T08:19:18;31.15;;;9.85;;
39994;SDS011;25686;51.908;10.418;2024-02-21T08:21:19;18.50;;;8.88;;
39994;SDS011;25686;51.908;10.418;2024-02-21T08:23:23;20.05;;;9.32;;
39994;SDS011;25686;51.908;10.418;2024-02-21T08:25:24;19.15;;;8.88;;
39994;SDS011;25686;51.908;10.418;2024-02-21T08:27:25;24.92;;;9.27;;
39994;SDS011;25686;51.908;10.418;2024-02-21T08:29:26;22.55;;;10.23;;
39994;SDS011;25686;51.908;10.418;2024-02-21T08:31:27;19.73;;;8.82;;
39994;SDS011;25686;51.908;10.418;2024-02-21T08:33:31;19.38;;;9.02;;
39994;SDS011;25686;51.908;10.418;2024-02-21T08:35:32;18.55;;;8.70;;
39994;SDS011;25686;51.908;10.418;2024-02-21T08:37:33;19.48;;;9.02;;
39994;SDS011;25686;51.908;10.418;2024-02-21T08:39:33;20.35;;;9.32;;
39994;SDS011;25686;51.908;10.418;2024-02-21T08:41:34;21.13;;;8.90;;
39994;SDS011;25686;51.908;10.418;2024-02-21T08:43:35;18.02;;;8.88;;
39994;SDS011;25686;51.908;10.418;2024-02-21T08:45:37;17.63;;;8.05;;
39994;SDS011;25686;51.908;10.418;2024-02-21T08:47:41;19.55;;;8.13;;
39994;SDS011;25686;51.908;10.418;2024-02-21T08:49:42;21.33;;;7.95;;
39994;SDS011;25686;51.908;10.418;2024-02-21T08:51:43;22.45;;;9.45;;
39994;SDS011;25686;51.908;10.418;2024-02-21T08:53:44;19.65;;;8.60;;
39994;SDS011;25686;51.908;10.418;2024-02-21T08:55:45;18.88;;;8.43;;
39994;SDS011;25686;51.908;10.418;2024-02-21T08:57:46;22.30;;;8.25;;
39994;SDS011;25686;51.908;10.418;2024-02-21T08:59:48;19.95;;;8.05;;
39994;SDS011;25686;51.908;10.418;2024-02-21T09:01:48;21.42;;;8.70;;
39994;SDS011;25686;51.908;10.418;2024-02-21T09:03:49;20.42;;;8.38;;
39994;SDS011;25686;51.908;10.418;2024-02-21T09:05:53;18.30;;;8.27;;
39994;SDS011;25686;51.908;10.418;2024-02-21T09:07:54;21.52;;;7.97;;
39994;SDS011;25686;51.908;10.418;2024-02-21T09:09:55;17.92;;;8.40;;
39994;SDS011;25686;51.908;10.418;2024-02-21T09:11:56;20.25;;;7.57;;
39994;SDS011;25686;51.908;10.418;2024-02-21T09:13:57;16.33;;;7.70;;
39994;SDS011;25686;51.908;10.418;2024-02-21T09:15:58;17.63;;;7.25;;
39994;SDS011;25686;51.908;10.418;2024-02-21T09:17:59;19.00;;;7.72;;
39994;SDS011;25686;51.908;10.418;2024-02-21T09:20:00;19.05;;;7.65;;
39994;SDS011;25686;51.908;10.418;2024-02-21T09:22:03;19.27;;;8.38;;
39994;SDS011;25686;51.908;10.418;2024-02-21T09:24:04;14.73;;;7.80;;
39994;SDS011;25686;51.908;10.418;2024-02-21T09:26:05;16.75;;;7.70;;
39994;SDS011;25686;51.908;10.418;2024-02-21T09:28:07;18.25;;;7.35;;
39994;SDS011;25686;51.908;10.418;2024-02-21T09:30:09;19.20;;;6.80;;
39994;SDS011;25686;51.908;10.418;2024-02-21T09:32:10;16.63;;;7.03;;
39994;SDS011;25686;51.908;10.418;2024-02-21T09:34:12;18.25;;;7.57;;
39994;SDS011;25686;51.908;10.418;2024-02-21T09:36:13;15.48;;;7.28;;
39994;SDS011;25686;51.908;10.418;2024-02-21T09:38:14;16.48;;;7.38;;
39994;SDS011;25686;51.908;10.418;2024-02-21T09:40:15;12.95;;;6.97;;
39994;SDS011;25686;51.908;10.418;2024-02-21T09:42:19;21.35;;;8.00;;
39994;SDS011;25686;51.908;10.418;2024-02-21T09:44:21;14.35;;;6.28;;
39994;SDS011;25686;51.908;10.418;2024-02-21T09:50:34;19.15;;;7.05;;
39994;SDS011;25686;51.908;10.418;2024-02-21T09:52:36;16.48;;;7.00;;
39994;SDS011;25686;51.908;10.418;2024-02-21T09:54:38;16.05;;;6.38;;
39994;SDS011;25686;51.908;10.418;2024-02-21T09:56:41;18.05;;;6.57;;
39994;SDS011;25686;51.908;10.418;2024-02-21T09:58:42;13.98;;;6.20;;
39994;SDS011;25686;51.908;10.418;2024-02-21T10:00:43;11.48;;;5.38;;
39994;SDS011;25686;51.908;10.418;2024-02-21T10:02:44;13.50;;;6.07;;
39994;SDS011;25686;51.908;10.418;2024-02-21T10:04:45;13.15;;;5.97;;
39994;SDS011;25686;51.908;10.418;2024-02-21T10:06:46;13.50;;;5.65;;
39994;SDS011;25686;51.908;10.418;2024-02-21T10:08:53;10.85;;;6.20;;
39994;SDS011;25686;51.908;10.418;2024-02-21T10:10:54;15.48;;;6.10;;
39994;SDS011;25686;51.908;10.418;2024-02-21T10:12:59;13.80;;;6.10;;
39994;SDS011;25686;51.908;10.418;2024-02-21T10:15:03;16.10;;;5.22;;
39994;SDS011;25686;51.908;10.418;2024-02-21T10:17:04;10.43;;;5.28;;
39994;SDS011;25686;51.908;10.418;2024-02-21T10:19:18;13.95;;;5.25;;
39994;SDS011;25686;51.908;10.418;2024-02-21T10:21:19;10.70;;;5.13;;
39994;SDS011;25686;51.908;10.418;2024-02-21T10:23:20;11.23;;;4.90;;
39994;SDS011;25686;51.908;10.418;2024-02-21T10:25:21;9.60;;;5.28;;
39994;SDS011;25686;51.908;10.418;2024-02-21T10:27:23;10.65;;;5.07;;
39994;SDS011;25686;51.908;10.418;2024-02-21T10:29:24;13.60;;;4.95;;
39994;SDS011;25686;51.908;10.418;2024-02-21T10:31:25;12.32;;;5.13;;
39994;SDS011;25686;51.908;10.418;2024-02-21T10:33:26;13.63;;;4.90;;
39994;SDS011;25686;51.908;10.418;2024-02-21T10:35:32;10.50;;;4.90;;
39994;SDS011;25686;51.908;10.418;2024-02-21T10:37:33;10.25;;;4.90;;
39994;SDS011;25686;51.908;10.418;2024-02-21T10:39:34;10.35;;;4.53;;
39994;SDS011;25686;51.908;10.418;2024-02-21T10:41:36;12.07;;;4.68;;
39994;SDS011;25686;51.908;10.418;2024-02-21T10:43:39;11.80;;;4.80;;
39994;SDS011;25686;51.908;10.418;2024-02-21T10:45:40;10.98;;;4.15;;
39994;SDS011;25686;51.908;10.418;2024-02-21T10:47:42;9.38;;;4.15;;
39994;SDS011;25686;51.908;10.418;2024-02-21T10:49:45;8.50;;;4.82;;
39994;SDS011;25686;51.908;10.418;2024-02-21T10:51:48;9.57;;;4.70;;
39994;SDS011;25686;51.908;10.418;2024-02-21T10:56:29;10.50;;;4.97;;
39994;SDS011;25686;51.908;10.418;2024-02-21T10:58:30;11.45;;;4.50;;
39994;SDS011;25686;51.908;10.418;2024-02-21T11:00:32;9.02;;;4.60;;
39994;SDS011;25686;51.908;10.418;2024-02-21T11:02:34;9.43;;;4.40;;
39994;SDS011;25686;51.908;10.418;2024-02-21T11:04:35;14.15;;;4.90;;
39994;SDS011;25686;51.908;10.418;2024-02-21T11:06:37;14.02;;;5.05;;
39994;SDS011;25686;51.908;10.418;2024-02-21T11:08:38;11.90;;;4.82;;
39994;SDS011;25686;51.908;10.418;2024-02-21T11:10:39;12.90;;;4.90;;
39994;SDS011;25686;51.908;10.418;2024-02-21T11:12:41;12.02;;;4.63;;
39994;SDS011;25686;51.908;10.418;2024-02-21T11:14:41;9.38;;;4.13;;
39994;SDS011;25686;51.908;10.418;2024-02-21T11:16:42;10.20;;;4.63;;
39994;SDS011;25686;51.908;10.418;2024-02-21T11:18:43;11.88;;;4.45;;
39994;SDS011;25686;51.908;10.418;2024-02-21T11:20:49;14.68;;;4.03;;
39994;SDS011;25686;51.908;10.418;2024-02-21T11:22:51;9.50;;;4.75;;
39994;SDS011;25686;51.908;10.418;2024-02-21T11:24:52;11.18;;;4.50;;
39994;SDS011;25686;51.908;10.418;2024-02-21T11:26:53;10.40;;;3.92;;
39994;SDS011;25686;51.908;10.418;2024-02-21T11:28:57;9.05;;;4.35;;
39994;SDS011;25686;51.908;10.418;2024-02-21T11:31:09;12.00;;;4.57;;
39994;SDS011;25686;51.908;10.418;2024-02-21T11:33:11;9.55;;;4.30;;
39994;SDS011;25686;51.908;10.418;2024-02-21T11:35:18;11.82;;;4.50;;
39994;SDS011;25686;51.908;10.418;2024-02-21T11:37:20;11.93;;;4.25;;
39994;SDS011;25686;51.908;10.418;2024-02-21T11:39:24;10.88;;;4.20;;
39994;SDS011;25686;51.908;10.418;2024-02-21T11:41:26;10.93;;;4.32;;
39994;SDS011;25686;51.908;10.418;2024-02-21T11:43:27;12.07;;;4.70;;
39994;SDS011;25686;51.908;10.418;2024-02-21T11:45:28;12.05;;;4.35;;
39994;SDS011;25686;51.908;10.418;2024-02-21T11:47:29;11.10;;;4.30;;
39994;SDS011;25686;51.908;10.418;2024-02-21T11:49:30;8.55;;;4.07;;
39994;SDS011;25686;51.908;10.418;2024-02-21T11:51:31;10.15;;;4.00;;
39994;SDS011;25686;51.908;10.418;2024-02-21T11:53:32;12.10;;;4.32;;